createdAt,value
2022-10-17T00:01:06.468Z,93.42
2022-10-17T00:03:37.008Z,92.65
2022-10-17T00:06:10.640Z,93.25
2022-10-17T00:08:39.148Z,93.49
2022-10-17T00:11:13.196Z,93.88
2022-10-17T00:13:46.037Z,92.97
2022-10-17T00:16:13.137Z,92.23
2022-10-17T00:18:40.480Z,92.06
2022-10-17T00:21:16.673Z,92.36
2022-10-17T00:23:43.699Z,93.05
2022-10-17T00:26:10.802Z,93.87
2022-10-17T00:28:40.891Z,94.24
2022-10-17T00:31:08.258Z,94.00
2022-10-17T00:33:36.003Z,93.42
2022-10-17T00:36:26.556Z,93.23
2022-10-17T00:38:57.223Z,93.44
2022-10-17T00:41:29.933Z,93.44
2022-10-17T00:44:08.520Z,93.51
2022-10-17T00:46:39.678Z,94.14
2022-10-17T00:49:12.761Z,94.22
2022-10-17T00:51:49.884Z,94.24
2022-10-17T00:54:19.616Z,94.45
2022-10-17T00:56:48.194Z,94.41
2022-10-17T00:59:25.012Z,93.83
2022-10-17T01:02:02.273Z,93.73
2022-10-17T01:04:29.191Z,93.54
2022-10-17T01:06:56.178Z,93.64
2022-10-17T01:09:25.260Z,93.37
2022-10-17T01:12:11.506Z,93.42
2022-10-17T01:15:09.037Z,93.39
2022-10-17T01:17:43.330Z,93.05
2022-10-17T01:20:36.048Z,93.27
2022-10-17T01:23:26.370Z,92.79
2022-10-17T01:26:18.904Z,92.72
2022-10-17T01:28:56.028Z,92.88
2022-10-17T01:31:34.666Z,93.32
2022-10-17T01:34:21.594Z,93.04
2022-10-17T01:37:15.078Z,92.73
2022-10-17T01:40:05.413Z,92.66
2022-10-17T01:42:50.817Z,92.76
2022-10-17T01:45:44.335Z,92.57
2022-10-17T01:48:39.719Z,92.76
2022-10-17T01:51:17.168Z,92.60
2022-10-17T01:53:52.404Z,92.38
2022-10-17T01:56:23.423Z,92.48
2022-10-17T01:59:15.416Z,92.74
2022-10-17T02:01:53.145Z,92.62
2022-10-17T02:04:21.851Z,92.28
2022-10-17T02:06:48.845Z,93.03
2022-10-17T02:09:24.842Z,92.59
2022-10-17T02:12:26.248Z,93.16
2022-10-17T02:15:17.099Z,93.24
2022-10-17T02:18:03.020Z,93.87
2022-10-17T02:20:38.146Z,93.81
2022-10-17T02:23:14.242Z,93.68
2022-10-17T02:26:22.787Z,93.21
2022-10-17T02:29:10.424Z,93.08
2022-10-17T02:31:49.076Z,92.73
2022-10-17T02:34:19.925Z,92.36
2022-10-17T02:36:52.011Z,92.50
2022-10-17T02:39:23.668Z,92.57
2022-10-17T02:41:52.666Z,92.87
2022-10-17T02:44:23.148Z,93.35
2022-10-17T02:47:04.147Z,93.07
2022-10-17T02:49:36.847Z,93.10
2022-10-17T02:52:12.668Z,93.24
2022-10-17T02:54:52.986Z,93.18
2022-10-17T02:57:37.385Z,93.69
2022-10-17T03:00:07.825Z,93.92
2022-10-17T03:03:19.922Z,93.71
2022-10-17T03:05:47.957Z,93.61
2022-10-17T03:08:16.022Z,93.40
2022-10-17T03:10:43.997Z,93.58
2022-10-17T03:13:20.975Z,93.66
2022-10-17T03:15:49.005Z,93.95
2022-10-17T03:18:16.023Z,93.95
2022-10-17T03:20:43.053Z,94.15
2022-10-17T03:23:10.943Z,93.83
2022-10-17T03:25:37.973Z,93.83
2022-10-17T03:28:05.794Z,93.94
2022-10-17T03:30:33.326Z,93.58
2022-10-17T03:33:01.446Z,93.81
2022-10-17T03:35:28.595Z,93.29
2022-10-17T03:37:56.494Z,93.14
2022-10-17T03:40:23.566Z,92.88
2022-10-17T03:42:54.675Z,92.86
2022-10-17T03:45:21.567Z,93.11
2022-10-17T03:47:48.475Z,93.04
2022-10-17T03:50:16.467Z,92.92
2022-10-17T03:52:48.555Z,93.09
2022-10-17T03:55:16.512Z,93.23
2022-10-17T03:57:45.746Z,92.98
2022-10-17T04:00:13.405Z,92.93
2022-10-17T04:02:40.305Z,93.04
2022-10-17T04:05:08.082Z,92.70
2022-10-17T04:07:37.205Z,93.06
2022-10-17T04:10:05.227Z,93.18
2022-10-17T04:12:32.458Z,92.92
2022-10-17T04:15:00.502Z,93.30
2022-10-17T04:17:27.431Z,93.83
2022-10-17T04:20:00.658Z,94.07
2022-10-17T04:22:29.103Z,94.24
2022-10-17T04:24:56.427Z,94.00
2022-10-17T04:27:23.391Z,93.53
2022-10-17T04:29:50.437Z,94.22
2022-10-17T04:32:17.607Z,94.48
2022-10-17T04:34:44.620Z,94.18
2022-10-17T04:37:12.612Z,94.12
2022-10-17T04:39:39.518Z,93.68
2022-10-17T04:42:08.601Z,94.28
2022-10-17T04:44:35.994Z,94.59
2022-10-17T04:47:04.014Z,94.62
2022-10-17T04:49:32.037Z,94.85
2022-10-17T04:52:00.107Z,94.85
2022-10-17T04:54:27.046Z,94.32
2022-10-17T04:56:56.010Z,94.48
2022-10-17T04:59:22.980Z,94.51
2022-10-17T05:01:50.979Z,94.96
2022-10-17T05:04:22.381Z,94.37
2022-10-17T05:06:51.605Z,94.74
2022-10-17T05:09:21.758Z,94.81
2022-10-17T05:11:49.715Z,94.69
2022-10-17T05:14:19.765Z,94.93
2022-10-17T05:16:46.756Z,94.90
2022-10-17T05:19:14.688Z,94.90
2022-10-17T05:21:42.680Z,94.81
2022-10-17T05:24:11.953Z,95.40
2022-10-17T05:26:38.940Z,95.26
2022-10-17T05:29:06.034Z,95.10
2022-10-17T05:31:34.051Z,94.94
2022-10-17T05:34:02.874Z,95.21
2022-10-17T05:36:31.083Z,95.06
2022-10-17T05:38:58.035Z,94.73
2022-10-17T05:41:25.068Z,94.62
2022-10-17T05:43:51.942Z,94.27
2022-10-17T05:46:18.901Z,94.25
2022-10-17T05:48:45.958Z,94.43
2022-10-17T05:51:14.074Z,93.75
2022-10-17T05:53:42.473Z,93.90
2022-10-17T05:56:11.523Z,93.74
2022-10-17T05:58:50.921Z,93.40
2022-10-17T06:01:19.794Z,92.82
2022-10-17T06:03:47.036Z,92.80
2022-10-17T06:06:15.083Z,92.76
2022-10-17T06:08:42.434Z,92.53
2022-10-17T06:11:12.600Z,91.93
2022-10-17T06:13:40.202Z,91.59
2022-10-17T06:16:07.671Z,91.43
2022-10-17T06:18:35.752Z,90.89
2022-10-17T06:21:05.791Z,90.75
2022-10-17T06:23:33.254Z,90.39
2022-10-17T06:26:02.279Z,90.31
2022-10-17T06:28:29.559Z,89.99
2022-10-17T06:30:56.631Z,89.49
2022-10-17T06:33:24.049Z,88.96
2022-10-17T06:35:57.858Z,89.37
2022-10-17T06:38:25.764Z,88.60
2022-10-17T06:40:54.598Z,87.71
2022-10-17T06:43:27.001Z,87.09
2022-10-17T06:45:55.071Z,86.96
2022-10-17T06:48:22.058Z,87.24
2022-10-17T06:50:49.098Z,86.63
2022-10-17T06:53:16.076Z,86.32
2022-10-17T06:55:43.317Z,85.70
2022-10-17T06:58:10.301Z,85.83
2022-10-17T07:00:38.428Z,85.47
2022-10-17T07:03:05.406Z,84.72
2022-10-17T07:05:32.376Z,83.89
2022-10-17T07:07:59.279Z,84.08
2022-10-17T07:10:27.247Z,83.39
2022-10-17T07:12:54.102Z,83.37
2022-10-17T07:15:21.015Z,82.60
2022-10-17T07:17:51.084Z,82.70
2022-10-17T07:20:17.983Z,82.53
2022-10-17T07:22:44.921Z,82.57
2022-10-17T07:25:11.854Z,82.29
2022-10-17T07:27:38.786Z,81.40
2022-10-17T07:30:06.333Z,81.36
2022-10-17T07:32:33.303Z,80.31
2022-10-17T07:35:00.242Z,80.45
2022-10-17T07:37:27.391Z,80.21
2022-10-17T07:39:54.762Z,80.70
2022-10-17T07:42:21.663Z,80.18
2022-10-17T07:44:48.592Z,79.47
2022-10-17T07:47:15.536Z,79.19
2022-10-17T07:49:44.316Z,79.24
2022-10-17T07:52:12.897Z,78.52
2022-10-17T07:54:40.033Z,78.60
2022-10-17T07:57:10.092Z,77.74
2022-10-17T07:59:38.567Z,76.86
2022-10-17T08:02:05.949Z,75.81
2022-10-17T08:04:34.108Z,77.09
2022-10-17T08:07:18.383Z,76.78
2022-10-17T08:09:47.865Z,74.75
2022-10-17T08:12:15.168Z,74.12
2022-10-17T08:14:42.932Z,75.41
2022-10-17T08:17:10.536Z,74.32
2022-10-17T08:19:41.030Z,73.53
2022-10-17T08:22:08.453Z,72.37
2022-10-17T08:24:35.441Z,72.89
2022-10-17T08:27:02.699Z,72.13
2022-10-17T08:29:29.770Z,71.91
2022-10-17T08:32:00.918Z,71.72
2022-10-17T08:34:28.937Z,71.74
2022-10-17T08:36:56.049Z,70.47
2022-10-17T08:39:22.981Z,71.31
2022-10-17T08:42:09.376Z,70.31
2022-10-17T08:44:50.205Z,69.78
2022-10-17T08:47:29.797Z,69.63
2022-10-17T08:50:03.236Z,68.96
2022-10-17T08:52:49.418Z,66.98
2022-10-17T08:55:49.667Z,62.24
2022-10-17T08:58:26.323Z,59.69
2022-10-17T09:01:02.243Z,54.61
2022-10-17T09:03:38.622Z,52.13
2022-10-17T09:06:39.116Z,51.84
2022-10-17T09:09:11.998Z,50.53
2022-10-17T09:11:39.014Z,50.10
2022-10-17T09:14:43.419Z,49.68
2022-10-17T09:17:28.873Z,47.56
2022-10-17T09:20:05.354Z,48.96
2022-10-17T09:22:45.161Z,47.88
2022-10-17T09:25:16.054Z,48.64
2022-10-17T09:27:50.342Z,46.87
2022-10-17T09:30:46.400Z,47.85
2022-10-17T09:33:35.612Z,47.03
2022-10-17T09:36:14.707Z,44.31
2022-10-17T09:38:45.936Z,45.18
2022-10-17T09:41:44.440Z,45.31
2022-10-17T09:44:22.256Z,45.74
2022-10-17T09:47:18.339Z,46.81
2022-10-17T09:49:47.494Z,46.68
2022-10-17T09:52:18.842Z,45.79
2022-10-17T09:54:56.320Z,45.53
2022-10-17T09:57:23.346Z,44.59
2022-10-17T10:00:06.236Z,45.36
2022-10-17T10:02:36.657Z,44.21
2022-10-17T10:05:17.198Z,45.06
2022-10-17T10:08:01.871Z,44.97
2022-10-17T10:10:30.448Z,43.88
2022-10-17T10:13:20.462Z,42.17
2022-10-17T10:15:50.212Z,41.56
2022-10-17T10:18:33.312Z,42.40
2022-10-17T10:21:08.611Z,45.13
2022-10-17T10:23:40.624Z,43.15
2022-10-17T10:26:30.355Z,45.08
2022-10-17T10:29:01.342Z,45.28
2022-10-17T10:31:38.865Z,43.63
2022-10-17T10:34:27.668Z,45.67
2022-10-17T10:36:57.421Z,43.68
2022-10-17T10:39:24.348Z,42.54
2022-10-17T10:41:51.394Z,40.99
2022-10-17T10:44:24.224Z,40.96
2022-10-17T10:47:17.579Z,41.21
2022-10-17T10:49:45.949Z,41.83
2022-10-17T10:52:22.814Z,42.17
2022-10-17T10:55:18.056Z,42.69
2022-10-17T10:57:47.940Z,41.71
2022-10-17T11:00:23.166Z,41.77
2022-10-17T11:03:16.651Z,44.60
2022-10-17T11:05:49.872Z,44.19
2022-10-17T11:08:25.939Z,44.02
2022-10-17T11:11:18.409Z,45.37
2022-10-17T11:13:53.383Z,44.20
2022-10-17T11:16:29.286Z,42.76
2022-10-17T11:19:07.609Z,42.52
2022-10-17T11:21:48.472Z,43.23
2022-10-17T11:24:39.934Z,42.94
2022-10-17T11:27:08.490Z,42.68
2022-10-17T11:29:39.769Z,41.55
2022-10-17T11:32:18.337Z,41.82
2022-10-17T11:34:50.172Z,42.33
2022-10-17T11:37:26.731Z,42.44
2022-10-17T11:39:56.195Z,43.44
2022-10-17T11:42:52.073Z,43.42
2022-10-17T11:45:23.879Z,44.33
2022-10-17T11:47:59.697Z,43.92
2022-10-17T11:53:41.212Z,43.30
2022-10-17T11:56:11.517Z,43.44
2022-10-17T11:58:57.019Z,44.17
2022-10-17T12:01:47.195Z,42.88
2022-10-17T12:04:39.575Z,42.95
2022-10-17T12:07:12.892Z,42.69
2022-10-17T12:09:58.798Z,42.66
2022-10-17T12:12:30.344Z,42.36
2022-10-17T12:15:25.657Z,42.56
2022-10-17T12:18:17.469Z,42.95
2022-10-17T12:20:56.892Z,43.67
2022-10-17T12:23:32.455Z,43.48
2022-10-17T12:26:05.865Z,41.50
2022-10-17T12:28:39.521Z,42.17
2022-10-17T12:31:13.263Z,41.94
2022-10-17T12:34:01.471Z,42.89
2022-10-17T12:36:28.690Z,43.01
2022-10-17T12:39:04.585Z,42.48
2022-10-17T12:41:45.025Z,43.90
2022-10-17T12:44:15.242Z,43.67
2022-10-17T12:47:08.267Z,43.68
2022-10-17T12:49:48.801Z,42.69
2022-10-17T12:52:25.785Z,43.65
2022-10-17T12:55:12.034Z,44.23
2022-10-17T12:57:51.962Z,43.80
2022-10-17T13:00:18.866Z,44.18
2022-10-17T13:02:46.623Z,43.71
2022-10-17T13:05:46.152Z,42.54
2022-10-17T13:08:22.508Z,42.10
2022-10-17T13:10:52.879Z,42.64
2022-10-17T13:13:26.759Z,42.33
2022-10-17T13:15:55.565Z,42.99
2022-10-17T13:18:28.810Z,42.89
2022-10-17T13:21:01.948Z,42.98
2022-10-17T13:23:36.620Z,43.75
2022-10-17T13:26:15.267Z,41.99
2022-10-17T13:28:44.770Z,41.22
2022-10-17T13:31:34.750Z,42.13
2022-10-17T13:34:05.700Z,41.93
2022-10-17T13:36:38.841Z,42.99
2022-10-17T13:39:19.689Z,42.35
2022-10-17T13:41:53.678Z,42.36
2022-10-17T13:44:23.538Z,42.17
2022-10-17T13:46:51.196Z,43.03
2022-10-17T13:49:25.716Z,43.29
2022-10-17T13:51:56.508Z,43.24
2022-10-17T13:54:45.183Z,43.16
2022-10-17T13:57:26.040Z,43.57
2022-10-17T13:59:57.495Z,44.25
2022-10-17T14:02:27.912Z,44.13
2022-10-17T14:05:18.156Z,44.83
2022-10-17T14:08:12.066Z,45.06
2022-10-17T14:10:43.702Z,44.06
2022-10-17T14:13:23.269Z,44.93
2022-10-17T14:15:51.444Z,44.66
2022-10-17T14:18:22.932Z,44.95
2022-10-17T14:23:41.715Z,45.56
2022-10-17T14:26:29.092Z,45.47
2022-10-17T14:29:07.855Z,46.21
2022-10-17T14:31:37.160Z,46.01
2022-10-17T14:34:05.563Z,45.99
2022-10-17T14:36:36.586Z,46.59
2022-10-17T14:39:08.494Z,47.23
2022-10-17T14:41:44.285Z,47.00
2022-10-17T14:44:23.221Z,47.05
2022-10-17T14:46:54.583Z,47.53
2022-10-17T14:49:41.201Z,47.14
2022-10-17T14:52:17.707Z,47.59
2022-10-17T14:54:47.583Z,47.90
2022-10-17T14:57:41.064Z,48.08
2022-10-17T15:00:08.575Z,48.97
2022-10-17T15:02:36.389Z,48.37
2022-10-17T15:05:03.329Z,48.81
2022-10-17T15:07:30.249Z,49.14
2022-10-17T15:09:57.487Z,49.76
2022-10-17T15:12:25.973Z,49.60
2022-10-17T15:14:53.703Z,50.17
2022-10-17T15:17:25.529Z,50.23
2022-10-17T15:19:52.539Z,50.34
2022-10-17T15:22:19.889Z,50.84
2022-10-17T15:24:47.297Z,50.85
2022-10-17T15:27:23.491Z,51.45
2022-10-17T15:29:51.922Z,51.76
2022-10-17T15:32:19.101Z,52.76
2022-10-17T15:34:48.127Z,53.07
2022-10-17T15:37:24.608Z,53.57
2022-10-17T15:39:54.716Z,53.75
2022-10-17T15:42:27.271Z,54.49
2022-10-17T15:44:54.941Z,55.15
2022-10-17T15:47:28.904Z,55.73
2022-10-17T15:50:01.053Z,55.80
2022-10-17T15:52:28.670Z,56.64
2022-10-17T15:54:58.385Z,56.94
2022-10-17T15:57:30.891Z,57.03
2022-10-17T16:00:00.480Z,57.20
2022-10-17T16:02:29.521Z,57.10
2022-10-17T16:04:56.518Z,57.71
2022-10-17T16:07:26.615Z,57.88
2022-10-17T16:09:53.585Z,58.14
2022-10-17T16:12:29.199Z,57.87
2022-10-17T16:14:59.420Z,58.23
2022-10-17T16:17:32.446Z,58.52
2022-10-17T16:20:00.657Z,58.75
2022-10-17T16:22:32.738Z,58.77
2022-10-17T16:25:07.889Z,58.27
2022-10-17T16:27:37.778Z,58.30
2022-10-17T16:30:07.717Z,58.48
2022-10-17T16:32:35.253Z,58.72
2022-10-17T16:35:08.887Z,58.92
2022-10-17T16:37:36.324Z,58.75
2022-10-17T16:40:04.669Z,58.39
2022-10-17T16:42:46.511Z,58.61
2022-10-17T16:45:32.900Z,58.82
2022-10-17T16:47:59.949Z,59.17
2022-10-17T16:50:53.529Z,58.76
2022-10-17T16:53:20.597Z,58.91
2022-10-17T16:56:02.674Z,59.34
2022-10-17T16:58:32.661Z,59.08
2022-10-17T17:01:04.896Z,59.01
2022-10-17T17:03:43.914Z,58.82
2022-10-17T17:06:19.092Z,59.01
2022-10-17T17:08:46.242Z,59.01
2022-10-17T17:11:16.042Z,59.18
2022-10-17T17:13:42.938Z,59.09
2022-10-17T17:16:22.344Z,58.89
2022-10-17T17:18:54.210Z,59.12
2022-10-17T17:21:21.551Z,59.19
2022-10-17T17:23:49.284Z,59.20
2022-10-17T17:26:20.445Z,59.27
2022-10-17T17:28:50.148Z,59.13
2022-10-17T17:31:23.312Z,59.39
2022-10-17T17:33:52.234Z,58.96
2022-10-17T17:36:24.731Z,59.44
2022-10-17T17:38:54.540Z,59.49
2022-10-17T17:41:22.573Z,59.54
2022-10-17T17:43:51.413Z,59.01
2022-10-17T17:46:20.014Z,59.16
2022-10-17T17:48:49.395Z,59.39
2022-10-17T17:51:26.910Z,59.29
2022-10-17T17:53:57.600Z,59.00
2022-10-17T17:56:27.220Z,59.19
2022-10-17T17:58:59.330Z,59.33
2022-10-17T18:01:29.959Z,59.17
2022-10-17T18:04:01.198Z,59.11
2022-10-17T18:06:28.934Z,58.83
2022-10-17T18:08:58.438Z,58.99
2022-10-17T18:11:30.544Z,59.02
2022-10-17T18:14:02.171Z,59.48
2022-10-17T18:16:31.146Z,59.29
2022-10-17T18:19:04.093Z,59.33
2022-10-17T18:21:34.796Z,58.98
2022-10-17T18:24:03.379Z,59.47
2022-10-17T18:26:31.093Z,58.72
2022-10-17T18:28:59.198Z,58.74
2022-10-17T18:31:32.468Z,58.72
2022-10-17T18:34:03.086Z,58.86
2022-10-17T18:36:32.161Z,58.89
2022-10-17T18:39:01.084Z,58.95
2022-10-17T18:41:35.246Z,58.67
2022-10-17T18:44:05.827Z,58.57
2022-10-17T18:46:36.893Z,58.95
2022-10-17T18:49:04.177Z,58.59
2022-10-17T18:51:31.790Z,58.60
2022-10-17T18:53:59.271Z,58.53
2022-10-17T18:56:30.374Z,58.42
2022-10-17T18:58:58.613Z,58.60
2022-10-17T19:01:28.739Z,58.47
2022-10-17T19:03:58.343Z,58.63
2022-10-17T19:06:28.613Z,58.49
2022-10-17T19:08:56.657Z,58.59
2022-10-17T19:11:25.778Z,58.06
2022-10-17T19:13:53.597Z,58.14
2022-10-17T19:16:32.876Z,58.54
2022-10-17T19:19:02.945Z,58.13
2022-10-17T19:21:30.574Z,58.12
2022-10-17T19:24:01.221Z,57.84
2022-10-17T19:26:30.413Z,58.19
2022-10-17T19:28:57.629Z,57.95
2022-10-17T19:31:27.318Z,58.17
2022-10-17T19:33:55.790Z,57.88
2022-10-17T19:36:29.021Z,58.14
2022-10-17T19:39:00.148Z,57.94
2022-10-17T19:41:28.754Z,57.99
2022-10-17T19:43:56.127Z,58.18
2022-10-17T19:46:27.656Z,58.19
2022-10-17T19:48:55.162Z,57.74
2022-10-17T19:51:27.092Z,58.01
2022-10-17T19:53:56.012Z,58.19
2022-10-17T19:56:25.161Z,57.95
2022-10-17T19:58:54.535Z,58.20
2022-10-17T20:01:26.720Z,58.06
2022-10-17T20:03:59.941Z,58.41
2022-10-17T20:06:28.003Z,58.70
2022-10-17T20:09:04.957Z,58.62
2022-10-17T20:11:33.443Z,58.42
2022-10-17T20:14:08.099Z,58.67
2022-10-17T20:16:39.289Z,58.85
2022-10-17T20:19:10.541Z,58.69
2022-10-17T20:21:40.193Z,58.70
2022-10-17T20:24:35.546Z,58.86
2022-10-17T20:27:04.554Z,59.02
2022-10-17T20:29:38.737Z,59.01
2022-10-17T20:32:06.039Z,59.22
2022-10-17T20:34:38.097Z,59.01
2022-10-17T20:37:06.181Z,58.88
2022-10-17T20:39:44.294Z,59.52
2022-10-17T20:42:12.426Z,59.39
2022-10-17T20:44:48.715Z,59.38
2022-10-17T20:47:47.210Z,59.49
2022-10-17T20:50:46.554Z,59.02
2022-10-17T20:53:36.924Z,58.93
2022-10-17T20:56:13.653Z,58.69
2022-10-17T20:58:41.625Z,58.86
2022-10-17T21:01:26.734Z,58.72
2022-10-17T21:04:09.425Z,58.78
2022-10-17T21:06:52.134Z,58.90
2022-10-17T21:09:38.824Z,58.80
2022-10-17T21:12:05.929Z,58.45
2022-10-17T21:14:33.966Z,58.92
2022-10-17T21:17:04.669Z,58.31
2022-10-17T21:19:50.406Z,58.27
2022-10-17T21:22:37.640Z,58.35
2022-10-17T21:25:11.702Z,58.54
2022-10-17T21:27:58.070Z,58.83
2022-10-17T21:30:25.040Z,58.90
2022-10-17T21:33:01.284Z,59.00
2022-10-17T21:35:29.260Z,58.63
2022-10-17T21:37:58.335Z,58.42
2022-10-17T21:40:25.407Z,58.31
2022-10-17T21:42:53.406Z,58.33
2022-10-17T21:45:29.778Z,58.29
2022-10-17T21:48:14.996Z,58.77
2022-10-17T21:50:42.009Z,58.48
2022-10-17T21:53:29.599Z,58.14
2022-10-17T21:56:01.617Z,58.23
2022-10-17T21:58:34.036Z,58.29
2022-10-17T22:01:15.429Z,57.83
2022-10-17T22:03:46.787Z,58.69
2022-10-17T22:06:44.000Z,58.34
2022-10-17T22:09:23.974Z,59.12
2022-10-17T22:11:54.173Z,59.56
2022-10-17T22:14:25.362Z,58.99
2022-10-17T22:16:59.589Z,58.71
2022-10-17T22:19:39.612Z,59.34
2022-10-17T22:22:25.016Z,59.50
2022-10-17T22:24:56.003Z,59.62
2022-10-17T22:27:24.947Z,59.62
2022-10-17T22:29:57.945Z,59.34
2022-10-17T22:32:24.962Z,60.12
2022-10-17T22:34:51.911Z,59.68
2022-10-17T22:37:19.901Z,59.07
2022-10-17T22:39:47.890Z,59.05
2022-10-17T22:42:15.462Z,58.67
2022-10-17T22:44:46.721Z,58.59
2022-10-17T22:47:14.725Z,58.46
2022-10-17T22:49:42.677Z,58.06
2022-10-17T22:52:17.665Z,58.49
2022-10-17T22:54:51.477Z,58.22
2022-10-17T22:57:21.385Z,58.10
2022-10-17T22:59:50.383Z,57.98
2022-10-17T23:02:19.353Z,58.07
2022-10-17T23:04:49.478Z,57.99
2022-10-17T23:07:46.648Z,58.20
2022-10-17T23:10:13.577Z,58.48
2022-10-17T23:12:41.501Z,58.24
2022-10-17T23:15:09.083Z,58.29
2022-10-17T23:17:40.175Z,58.52
2022-10-17T23:20:07.734Z,58.36
2022-10-17T23:22:35.636Z,58.74
2022-10-17T23:25:04.882Z,58.54
2022-10-17T23:27:36.064Z,58.85
2022-10-17T23:30:05.263Z,58.67
2022-10-17T23:32:40.994Z,58.86
2022-10-17T23:35:08.866Z,59.16
2022-10-17T23:37:42.885Z,58.63
2022-10-17T23:40:17.203Z,59.32
2022-10-17T23:42:45.520Z,59.44
2022-10-17T23:45:12.631Z,59.14
2022-10-17T23:47:39.685Z,60.27
2022-10-17T23:50:09.838Z,59.76
2022-10-17T23:52:36.893Z,60.04
2022-10-17T23:55:08.646Z,60.68
2022-10-17T23:57:41.602Z,60.25
